sensor_id;sensor_type;location;lat;lon;timestamp;temperature;humidity
16810;DHT22;51744;50.872;4.730;2023-03-25T00:00:14;9.60;99.90
16810;DHT22;51744;50.872;4.730;2023-03-25T00:03:02;9.60;99.90
16810;DHT22;51744;50.872;4.730;2023-03-25T00:05:50;9.50;99.90
16810;DHT22;51744;50.872;4.730;2023-03-25T00:08:38;9.50;99.90
16810;DHT22;51744;50.872;4.730;2023-03-25T00:11:27;9.50;99.90
16810;DHT22;51744;50.872;4.730;2023-03-25T00:14:15;9.50;99.90
16810;DHT22;51744;50.872;4.730;2023-03-25T00:17:04;9.50;99.90
16810;DHT22;51744;50.872;4.730;2023-03-25T00:19:52;9.50;99.90
16810;DHT22;51744;50.872;4.730;2023-03-25T00:22:40;9.50;99.90
16810;DHT22;51744;50.872;4.730;2023-03-25T00:25:29;9.40;99.90
16810;DHT22;51744;50.872;4.730;2023-03-25T00:28:18;9.40;99.90
16810;DHT22;51744;50.872;4.730;2023-03-25T00:31:08;9.40;99.90
16810;DHT22;51744;50.872;4.730;2023-03-25T00:33:57;9.40;99.90
16810;DHT22;51744;50.872;4.730;2023-03-25T00:36:44;9.40;99.90
16810;DHT22;51744;50.872;4.730;2023-03-25T00:39:32;9.50;99.90
16810;DHT22;51744;50.872;4.730;2023-03-25T00:42:19;9.40;99.90
16810;DHT22;51744;50.872;4.730;2023-03-25T00:45:13;9.40;99.90
16810;DHT22;51744;50.872;4.730;2023-03-25T00:48:00;9.40;99.90
16810;DHT22;51744;50.872;4.730;2023-03-25T00:50:51;9.40;99.90
16810;DHT22;51744;50.872;4.730;2023-03-25T00:53:39;9.40;99.90
16810;DHT22;51744;50.872;4.730;2023-03-25T00:56:28;9.40;99.90
16810;DHT22;51744;50.872;4.730;2023-03-25T00:59:15;9.40;99.90
16810;DHT22;51744;50.872;4.730;2023-03-25T01:02:03;9.40;99.90
16810;DHT22;51744;50.872;4.730;2023-03-25T01:04:51;9.50;99.90
16810;DHT22;51744;50.872;4.730;2023-03-25T01:07:40;9.50;99.90
16810;DHT22;51744;50.872;4.730;2023-03-25T01:10:27;9.50;99.90
16810;DHT22;51744;50.872;4.730;2023-03-25T01:13:15;9.50;99.90
16810;DHT22;51744;50.872;4.730;2023-03-25T01:16:06;9.50;99.90
16810;DHT22;51744;50.872;4.730;2023-03-25T01:18:55;9.50;99.90
16810;DHT22;51744;50.872;4.730;2023-03-25T01:21:43;9.50;99.90
16810;DHT22;51744;50.872;4.730;2023-03-25T01:24:31;9.40;99.90
16810;DHT22;51744;50.872;4.730;2023-03-25T01:27:18;9.30;99.90
16810;DHT22;51744;50.872;4.730;2023-03-25T01:30:07;9.30;99.90
16810;DHT22;51744;50.872;4.730;2023-03-25T01:32:54;9.20;99.90
16810;DHT22;51744;50.872;4.730;2023-03-25T01:35:46;9.30;99.90
16810;DHT22;51744;50.872;4.730;2023-03-25T01:38:35;9.40;99.90
16810;DHT22;51744;50.872;4.730;2023-03-25T01:41:22;9.40;99.90
16810;DHT22;51744;50.872;4.730;2023-03-25T01:47:42;9.30;99.90
16810;DHT22;51744;50.872;4.730;2023-03-25T01:50:44;9.30;99.90
16810;DHT22;51744;50.872;4.730;2023-03-25T01:53:35;9.40;99.90
16810;DHT22;51744;50.872;4.730;2023-03-25T01:56:26;9.40;99.90
16810;DHT22;51744;50.872;4.730;2023-03-25T01:59:20;9.40;99.90
16810;DHT22;51744;50.872;4.730;2023-03-25T02:02:10;9.40;99.90
16810;DHT22;51744;50.872;4.730;2023-03-25T02:05:04;9.40;99.90
16810;DHT22;51744;50.872;4.730;2023-03-25T02:07:56;9.30;99.90
16810;DHT22;51744;50.872;4.730;2023-03-25T02:10:46;9.30;99.90
16810;DHT22;51744;50.872;4.730;2023-03-25T02:13:34;9.30;99.90
16810;DHT22;51744;50.872;4.730;2023-03-25T02:16:27;9.30;99.90
16810;DHT22;51744;50.872;4.730;2023-03-25T02:22:49;9.30;99.90
16810;DHT22;51744;50.872;4.730;2023-03-25T02:26:08;9.40;99.90
16810;DHT22;51744;50.872;4.730;2023-03-25T02:29:06;9.40;99.90
16810;DHT22;51744;50.872;4.730;2023-03-25T02:32:08;9.40;99.90
16810;DHT22;51744;50.872;4.730;2023-03-25T02:35:19;9.40;99.90
16810;DHT22;51744;50.872;4.730;2023-03-25T02:38:22;9.30;99.90
16810;DHT22;51744;50.872;4.730;2023-03-25T02:41:16;9.30;99.90
16810;DHT22;51744;50.872;4.730;2023-03-25T02:44:10;9.30;99.90
16810;DHT22;51744;50.872;4.730;2023-03-25T02:47:02;9.40;99.90
16810;DHT22;51744;50.872;4.730;2023-03-25T02:49:54;9.30;99.90
16810;DHT22;51744;50.872;4.730;2023-03-25T02:52:46;9.30;99.90
16810;DHT22;51744;50.872;4.730;2023-03-25T02:55:36;9.40;99.90
16810;DHT22;51744;50.872;4.730;2023-03-25T02:58:27;9.30;99.90
16810;DHT22;51744;50.872;4.730;2023-03-25T03:01:16;9.30;99.90
16810;DHT22;51744;50.872;4.730;2023-03-25T03:04:04;9.30;99.90
16810;DHT22;51744;50.872;4.730;2023-03-25T03:06:53;9.20;99.90
16810;DHT22;51744;50.872;4.730;2023-03-25T03:09:45;9.20;99.90
16810;DHT22;51744;50.872;4.730;2023-03-25T03:12:48;9.20;99.90
16810;DHT22;51744;50.872;4.730;2023-03-25T03:15:43;9.20;99.90
16810;DHT22;51744;50.872;4.730;2023-03-25T03:18:43;9.20;99.90
16810;DHT22;51744;50.872;4.730;2023-03-25T03:21:36;9.20;99.90
16810;DHT22;51744;50.872;4.730;2023-03-25T03:24:30;9.20;99.90
16810;DHT22;51744;50.872;4.730;2023-03-25T03:27:25;9.20;99.90
16810;DHT22;51744;50.872;4.730;2023-03-25T03:30:25;9.20;99.90
16810;DHT22;51744;50.872;4.730;2023-03-25T03:33:18;9.20;99.90
16810;DHT22;51744;50.872;4.730;2023-03-25T03:36:13;9.30;99.90
16810;DHT22;51744;50.872;4.730;2023-03-25T03:39:07;9.30;99.90
16810;DHT22;51744;50.872;4.730;2023-03-25T03:42:02;9.30;99.90
16810;DHT22;51744;50.872;4.730;2023-03-25T03:44:55;9.30;99.90
16810;DHT22;51744;50.872;4.730;2023-03-25T03:47:51;9.10;99.90
16810;DHT22;51744;50.872;4.730;2023-03-25T03:50:43;9.10;99.90
16810;DHT22;51744;50.872;4.730;2023-03-25T03:53:38;9.10;99.90
16810;DHT22;51744;50.872;4.730;2023-03-25T03:56:29;9.10;99.90
16810;DHT22;51744;50.872;4.730;2023-03-25T03:59:27;9.00;99.90
16810;DHT22;51744;50.872;4.730;2023-03-25T04:02:22;9.00;99.90
16810;DHT22;51744;50.872;4.730;2023-03-25T04:05:16;9.00;99.90
16810;DHT22;51744;50.872;4.730;2023-03-25T04:08:10;9.00;99.90
16810;DHT22;51744;50.872;4.730;2023-03-25T04:11:01;9.00;99.90
16810;DHT22;51744;50.872;4.730;2023-03-25T04:13:54;9.00;99.90
16810;DHT22;51744;50.872;4.730;2023-03-25T04:16:44;8.90;99.90
16810;DHT22;51744;50.872;4.730;2023-03-25T04:19:32;8.80;99.90
16810;DHT22;51744;50.872;4.730;2023-03-25T04:22:21;8.80;99.90
16810;DHT22;51744;50.872;4.730;2023-03-25T04:25:10;8.80;99.90
16810;DHT22;51744;50.872;4.730;2023-03-25T04:27:59;8.80;99.90
16810;DHT22;51744;50.872;4.730;2023-03-25T04:30:46;8.80;99.90
16810;DHT22;51744;50.872;4.730;2023-03-25T04:33:35;8.80;99.90
16810;DHT22;51744;50.872;4.730;2023-03-25T04:36:23;8.80;99.90
16810;DHT22;51744;50.872;4.730;2023-03-25T04:39:15;8.80;99.90
16810;DHT22;51744;50.872;4.730;2023-03-25T04:42:03;8.80;99.90
16810;DHT22;51744;50.872;4.730;2023-03-25T04:44:50;8.90;99.90
16810;DHT22;51744;50.872;4.730;2023-03-25T04:47:38;8.90;99.90
16810;DHT22;51744;50.872;4.730;2023-03-25T04:50:30;8.90;99.90
16810;DHT22;51744;50.872;4.730;2023-03-25T04:53:19;8.90;99.90
16810;DHT22;51744;50.872;4.730;2023-03-25T04:56:12;8.90;99.90
16810;DHT22;51744;50.872;4.730;2023-03-25T04:59:01;8.80;99.90
16810;DHT22;51744;50.872;4.730;2023-03-25T05:01:49;8.90;99.90
16810;DHT22;51744;50.872;4.730;2023-03-25T05:04:38;8.90;99.90
16810;DHT22;51744;50.872;4.730;2023-03-25T05:07:27;8.90;99.90
16810;DHT22;51744;50.872;4.730;2023-03-25T05:10:16;8.90;99.90
16810;DHT22;51744;50.872;4.730;2023-03-25T05:13:06;8.90;99.90
16810;DHT22;51744;50.872;4.730;2023-03-25T05:15:54;8.90;99.90
16810;DHT22;51744;50.872;4.730;2023-03-25T05:18:41;9.00;99.90
16810;DHT22;51744;50.872;4.730;2023-03-25T05:21:28;9.00;99.90
16810;DHT22;51744;50.872;4.730;2023-03-25T05:24:16;9.00;99.90
16810;DHT22;51744;50.872;4.730;2023-03-25T05:27:05;9.00;99.90
16810;DHT22;51744;50.872;4.730;2023-03-25T05:29:53;9.10;99.90
16810;DHT22;51744;50.872;4.730;2023-03-25T05:32:43;9.10;99.90
16810;DHT22;51744;50.872;4.730;2023-03-25T05:35:43;9.10;99.90
16810;DHT22;51744;50.872;4.730;2023-03-25T05:38:30;9.10;99.90
16810;DHT22;51744;50.872;4.730;2023-03-25T05:41:18;9.10;99.90
16810;DHT22;51744;50.872;4.730;2023-03-25T05:44:09;9.10;99.90
16810;DHT22;51744;50.872;4.730;2023-03-25T05:47:02;9.10;99.90
16810;DHT22;51744;50.872;4.730;2023-03-25T05:49:52;9.20;99.90
16810;DHT22;51744;50.872;4.730;2023-03-25T05:52:39;9.10;99.90
16810;DHT22;51744;50.872;4.730;2023-03-25T05:55:28;9.10;99.90
16810;DHT22;51744;50.872;4.730;2023-03-25T05:58:15;9.10;99.90
16810;DHT22;51744;50.872;4.730;2023-03-25T06:01:02;9.10;99.90
16810;DHT22;51744;50.872;4.730;2023-03-25T06:03:52;9.10;99.90
16810;DHT22;51744;50.872;4.730;2023-03-25T06:06:40;9.10;99.90
16810;DHT22;51744;50.872;4.730;2023-03-25T06:09:27;9.10;99.90
16810;DHT22;51744;50.872;4.730;2023-03-25T06:12:17;9.00;99.90
16810;DHT22;51744;50.872;4.730;2023-03-25T06:15:06;9.00;99.90
16810;DHT22;51744;50.872;4.730;2023-03-25T06:17:55;9.10;99.90
16810;DHT22;51744;50.872;4.730;2023-03-25T06:20:43;9.10;99.90
16810;DHT22;51744;50.872;4.730;2023-03-25T06:23:32;9.10;99.90
16810;DHT22;51744;50.872;4.730;2023-03-25T06:26:22;9.10;99.90
16810;DHT22;51744;50.872;4.730;2023-03-25T06:29:09;9.10;99.90
16810;DHT22;51744;50.872;4.730;2023-03-25T06:31:57;9.10;99.90
16810;DHT22;51744;50.872;4.730;2023-03-25T06:34:43;9.10;99.90
16810;DHT22;51744;50.872;4.730;2023-03-25T06:37:33;9.10;99.90
16810;DHT22;51744;50.872;4.730;2023-03-25T06:40:25;9.20;99.90
16810;DHT22;51744;50.872;4.730;2023-03-25T06:43:14;9.40;99.90
16810;DHT22;51744;50.872;4.730;2023-03-25T06:46:22;9.40;99.90
16810;DHT22;51744;50.872;4.730;2023-03-25T06:49:32;9.50;99.90
16810;DHT22;51744;50.872;4.730;2023-03-25T06:52:20;9.60;99.90
16810;DHT22;51744;50.872;4.730;2023-03-25T06:55:09;9.50;99.90
16810;DHT22;51744;50.872;4.730;2023-03-25T06:57:57;9.50;99.90
16810;DHT22;51744;50.872;4.730;2023-03-25T07:00:45;9.40;99.90
16810;DHT22;51744;50.872;4.730;2023-03-25T07:03:33;9.30;99.90
16810;DHT22;51744;50.872;4.730;2023-03-25T07:06:21;9.30;99.90
16810;DHT22;51744;50.872;4.730;2023-03-25T07:09:09;9.40;99.90
16810;DHT22;51744;50.872;4.730;2023-03-25T07:11:57;9.40;99.90
16810;DHT22;51744;50.872;4.730;2023-03-25T07:14:50;9.50;99.90
16810;DHT22;51744;50.872;4.730;2023-03-25T07:17:38;9.50;99.90
16810;DHT22;51744;50.872;4.730;2023-03-25T07:20:27;9.60;99.90
16810;DHT22;51744;50.872;4.730;2023-03-25T07:23:15;9.60;99.90
16810;DHT22;51744;50.872;4.730;2023-03-25T07:26:03;9.70;99.90
16810;DHT22;51744;50.872;4.730;2023-03-25T07:28:52;9.70;99.90
16810;DHT22;51744;50.872;4.730;2023-03-25T07:31:40;9.70;99.90
16810;DHT22;51744;50.872;4.730;2023-03-25T07:34:28;9.90;99.90
16810;DHT22;51744;50.872;4.730;2023-03-25T07:37:16;10.00;99.90
16810;DHT22;51744;50.872;4.730;2023-03-25T07:40:08;10.00;99.90
16810;DHT22;51744;50.872;4.730;2023-03-25T07:42:55;9.90;99.90
16810;DHT22;51744;50.872;4.730;2023-03-25T07:46:13;10.00;99.90
16810;DHT22;51744;50.872;4.730;2023-03-25T07:49:00;10.10;99.90
16810;DHT22;51744;50.872;4.730;2023-03-25T07:51:47;10.00;99.90
16810;DHT22;51744;50.872;4.730;2023-03-25T07:54:36;10.00;99.90
16810;DHT22;51744;50.872;4.730;2023-03-25T07:57:23;10.10;99.90
16810;DHT22;51744;50.872;4.730;2023-03-25T08:00:12;10.20;99.90
16810;DHT22;51744;50.872;4.730;2023-03-25T08:03:01;10.30;99.90
16810;DHT22;51744;50.872;4.730;2023-03-25T08:05:48;10.40;99.90
16810;DHT22;51744;50.872;4.730;2023-03-25T08:08:37;10.40;99.90
16810;DHT22;51744;50.872;4.730;2023-03-25T08:11:25;10.50;99.90
16810;DHT22;51744;50.872;4.730;2023-03-25T08:14:13;10.40;99.90
16810;DHT22;51744;50.872;4.730;2023-03-25T08:17:00;10.30;99.90
16810;DHT22;51744;50.872;4.730;2023-03-25T08:19:48;10.40;99.90
16810;DHT22;51744;50.872;4.730;2023-03-25T08:22:36;10.30;99.90
16810;DHT22;51744;50.872;4.730;2023-03-25T08:25:23;10.20;99.90
16810;DHT22;51744;50.872;4.730;2023-03-25T08:28:10;10.20;99.90
16810;DHT22;51744;50.872;4.730;2023-03-25T08:31:05;10.10;99.90
16810;DHT22;51744;50.872;4.730;2023-03-25T08:33:53;10.00;99.90
16810;DHT22;51744;50.872;4.730;2023-03-25T08:36:43;10.00;99.90
16810;DHT22;51744;50.872;4.730;2023-03-25T08:39:31;10.40;99.90
16810;DHT22;51744;50.872;4.730;2023-03-25T08:42:24;10.50;99.90
16810;DHT22;51744;50.872;4.730;2023-03-25T08:45:12;10.90;99.90
16810;DHT22;51744;50.872;4.730;2023-03-25T08:48:01;11.10;99.90
16810;DHT22;51744;50.872;4.730;2023-03-25T08:50:51;10.80;99.90
16810;DHT22;51744;50.872;4.730;2023-03-25T08:53:40;10.60;99.90
16810;DHT22;51744;50.872;4.730;2023-03-25T08:56:28;11.00;99.90
16810;DHT22;51744;50.872;4.730;2023-03-25T08:59:16;11.40;99.90
16810;DHT22;51744;50.872;4.730;2023-03-25T09:02:04;11.60;99.90
16810;DHT22;51744;50.872;4.730;2023-03-25T09:04:51;11.80;99.90
16810;DHT22;51744;50.872;4.730;2023-03-25T09:07:39;11.60;99.90
16810;DHT22;51744;50.872;4.730;2023-03-25T09:10:27;11.50;99.90
16810;DHT22;51744;50.872;4.730;2023-03-25T09:13:15;11.40;99.90
16810;DHT22;51744;50.872;4.730;2023-03-25T09:16:02;11.30;99.90
16810;DHT22;51744;50.872;4.730;2023-03-25T09:18:49;11.30;99.90
16810;DHT22;51744;50.872;4.730;2023-03-25T09:21:36;11.40;99.90
16810;DHT22;51744;50.872;4.730;2023-03-25T09:24:24;11.70;99.90
16810;DHT22;51744;50.872;4.730;2023-03-25T09:27:13;12.00;99.90
16810;DHT22;51744;50.872;4.730;2023-03-25T09:30:00;12.10;99.90
16810;DHT22;51744;50.872;4.730;2023-03-25T09:32:48;11.90;99.90
16810;DHT22;51744;50.872;4.730;2023-03-25T09:35:36;11.30;99.90
16810;DHT22;51744;50.872;4.730;2023-03-25T09:38:23;10.70;99.90
16810;DHT22;51744;50.872;4.730;2023-03-25T09:41:37;10.40;99.90
16810;DHT22;51744;50.872;4.730;2023-03-25T09:44:32;10.30;99.90
16810;DHT22;51744;50.872;4.730;2023-03-25T09:47:21;10.20;99.90
16810;DHT22;51744;50.872;4.730;2023-03-25T09:50:11;10.20;99.90
16810;DHT22;51744;50.872;4.730;2023-03-25T09:53:03;10.30;99.90
16810;DHT22;51744;50.872;4.730;2023-03-25T09:55:52;10.30;99.90
16810;DHT22;51744;50.872;4.730;2023-03-25T09:58:42;10.30;99.90
16810;DHT22;51744;50.872;4.730;2023-03-25T10:01:37;10.20;99.90
16810;DHT22;51744;50.872;4.730;2023-03-25T10:04:51;10.20;99.90
16810;DHT22;51744;50.872;4.730;2023-03-25T10:07:51;10.70;99.90
16810;DHT22;51744;50.872;4.730;2023-03-25T10:10:48;11.60;99.90
16810;DHT22;51744;50.872;4.730;2023-03-25T10:13:46;11.70;99.90
16810;DHT22;51744;50.872;4.730;2023-03-25T10:16:44;11.80;99.90
16810;DHT22;51744;50.872;4.730;2023-03-25T10:19:49;11.40;99.90
16810;DHT22;51744;50.872;4.730;2023-03-25T10:22:50;10.90;99.90
16810;DHT22;51744;50.872;4.730;2023-03-25T10:25:44;10.70;99.90
16810;DHT22;51744;50.872;4.730;2023-03-25T10:28:38;10.60;99.90
16810;DHT22;51744;50.872;4.730;2023-03-25T10:31:30;10.70;99.90
16810;DHT22;51744;50.872;4.730;2023-03-25T10:34:28;11.20;99.90
16810;DHT22;51744;50.872;4.730;2023-03-25T10:37:24;11.80;99.90
16810;DHT22;51744;50.872;4.730;2023-03-25T10:40:17;12.20;99.90
16810;DHT22;51744;50.872;4.730;2023-03-25T10:43:14;12.60;99.90
16810;DHT22;51744;50.872;4.730;2023-03-25T10:46:12;12.60;99.90
16810;DHT22;51744;50.872;4.730;2023-03-25T10:49:00;13.50;99.90
16810;DHT22;51744;50.872;4.730;2023-03-25T10:51:50;13.50;99.90
16810;DHT22;51744;50.872;4.730;2023-03-25T10:54:41;14.20;99.90
16810;DHT22;51744;50.872;4.730;2023-03-25T10:57:31;15.50;99.90
16810;DHT22;51744;50.872;4.730;2023-03-25T11:00:19;16.00;99.90
16810;DHT22;51744;50.872;4.730;2023-03-25T11:03:15;16.30;99.90
16810;DHT22;51744;50.872;4.730;2023-03-25T11:06:04;16.90;99.90
16810;DHT22;51744;50.872;4.730;2023-03-25T11:09:15;16.50;99.90
16810;DHT22;51744;50.872;4.730;2023-03-25T11:12:05;15.30;99.90
16810;DHT22;51744;50.872;4.730;2023-03-25T11:14:54;15.10;99.90
16810;DHT22;51744;50.872;4.730;2023-03-25T11:17:43;16.30;99.90
16810;DHT22;51744;50.872;4.730;2023-03-25T11:20:36;16.80;99.90
16810;DHT22;51744;50.872;4.730;2023-03-25T11:23:26;16.80;99.90
16810;DHT22;51744;50.872;4.730;2023-03-25T11:26:19;17.20;99.90
16810;DHT22;51744;50.872;4.730;2023-03-25T11:29:10;16.70;99.90
16810;DHT22;51744;50.872;4.730;2023-03-25T11:32:05;16.20;99.90
16810;DHT22;51744;50.872;4.730;2023-03-25T11:34:53;14.80;99.90
16810;DHT22;51744;50.872;4.730;2023-03-25T11:37:44;13.70;99.90
16810;DHT22;51744;50.872;4.730;2023-03-25T11:40:33;13.10;99.90
16810;DHT22;51744;50.872;4.730;2023-03-25T11:43:24;13.10;99.90
16810;DHT22;51744;50.872;4.730;2023-03-25T11:46:15;12.80;99.90
16810;DHT22;51744;50.872;4.730;2023-03-25T11:49:08;12.50;99.90
16810;DHT22;51744;50.872;4.730;2023-03-25T11:51:58;12.40;99.90
16810;DHT22;51744;50.872;4.730;2023-03-25T11:54:46;12.30;99.90
16810;DHT22;51744;50.872;4.730;2023-03-25T11:57:37;12.30;99.90
16810;DHT22;51744;50.872;4.730;2023-03-25T12:00:32;12.00;99.90
16810;DHT22;51744;50.872;4.730;2023-03-25T12:03:26;11.50;99.90
16810;DHT22;51744;50.872;4.730;2023-03-25T12:06:17;10.80;99.90
16810;DHT22;51744;50.872;4.730;2023-03-25T12:09:08;10.20;99.90
16810;DHT22;51744;50.872;4.730;2023-03-25T12:15:22;10.10;99.90
16810;DHT22;51744;50.872;4.730;2023-03-25T12:18:40;10.10;99.90
16810;DHT22;51744;50.872;4.730;2023-03-25T12:21:42;10.00;99.90
16810;DHT22;51744;50.872;4.730;2023-03-25T12:24:47;9.90;99.90
16810;DHT22;51744;50.872;4.730;2023-03-25T12:27:47;9.90;99.90
16810;DHT22;51744;50.872;4.730;2023-03-25T12:30:47;9.80;99.90
16810;DHT22;51744;50.872;4.730;2023-03-25T12:33:49;10.10;99.90
16810;DHT22;51744;50.872;4.730;2023-03-25T12:36:49;10.10;99.90
16810;DHT22;51744;50.872;4.730;2023-03-25T12:39:49;10.10;99.90
16810;DHT22;51744;50.872;4.730;2023-03-25T12:42:44;10.50;99.90
16810;DHT22;51744;50.872;4.730;2023-03-25T12:45:48;10.60;99.90
16810;DHT22;51744;50.872;4.730;2023-03-25T12:48:54;10.60;99.90
16810;DHT22;51744;50.872;4.730;2023-03-25T12:51:51;10.60;99.90
16810;DHT22;51744;50.872;4.730;2023-03-25T12:54:51;10.60;99.90
16810;DHT22;51744;50.872;4.730;2023-03-25T12:57:50;10.60;99.90
16810;DHT22;51744;50.872;4.730;2023-03-25T13:00:48;10.40;99.90
16810;DHT22;51744;50.872;4.730;2023-03-25T13:06:59;10.10;99.90
16810;DHT22;51744;50.872;4.730;2023-03-25T13:09:54;10.10;99.90
16810;DHT22;51744;50.872;4.730;2023-03-25T13:12:47;10.10;99.90
16810;DHT22;51744;50.872;4.730;2023-03-25T13:15:38;10.10;99.90
16810;DHT22;51744;50.872;4.730;2023-03-25T13:18:31;10.20;99.90
16810;DHT22;51744;50.872;4.730;2023-03-25T13:21:23;10.40;99.90
16810;DHT22;51744;50.872;4.730;2023-03-25T13:24:16;10.40;99.90
16810;DHT22;51744;50.872;4.730;2023-03-25T13:27:05;10.30;99.90
16810;DHT22;51744;50.872;4.730;2023-03-25T13:29:56;10.30;99.90
16810;DHT22;51744;50.872;4.730;2023-03-25T13:32:45;10.40;99.90
16810;DHT22;51744;50.872;4.730;2023-03-25T13:35:40;10.40;99.90
16810;DHT22;51744;50.872;4.730;2023-03-25T13:38:32;10.60;99.90
16810;DHT22;51744;50.872;4.730;2023-03-25T13:41:25;11.00;99.90
16810;DHT22;51744;50.872;4.730;2023-03-25T13:44:21;11.20;99.90
16810;DHT22;51744;50.872;4.730;2023-03-25T13:47:16;11.30;99.90
16810;DHT22;51744;50.872;4.730;2023-03-25T13:50:13;11.60;99.90
16810;DHT22;51744;50.872;4.730;2023-03-25T13:53:13;11.80;99.90
16810;DHT22;51744;50.872;4.730;2023-03-25T13:56:47;12.00;99.90
16810;DHT22;51744;50.872;4.730;2023-03-25T13:59:55;12.20;99.90
16810;DHT22;51744;50.872;4.730;2023-03-25T14:03:30;12.40;99.90
16810;DHT22;51744;50.872;4.730;2023-03-25T14:13:27;12.90;99.90
16810;DHT22;51744;50.872;4.730;2023-03-25T14:16:18;12.90;99.90
16810;DHT22;51744;50.872;4.730;2023-03-25T14:19:11;13.10;99.90
16810;DHT22;51744;50.872;4.730;2023-03-25T14:22:07;13.20;99.90
16810;DHT22;51744;50.872;4.730;2023-03-25T14:24:56;13.20;99.90
16810;DHT22;51744;50.872;4.730;2023-03-25T14:27:47;13.20;99.90
16810;DHT22;51744;50.872;4.730;2023-03-25T14:30:37;13.40;99.90
16810;DHT22;51744;50.872;4.730;2023-03-25T14:33:25;13.50;99.90
16810;DHT22;51744;50.872;4.730;2023-03-25T14:36:11;13.30;99.90
16810;DHT22;51744;50.872;4.730;2023-03-25T14:38:59;13.20;99.90
16810;DHT22;51744;50.872;4.730;2023-03-25T14:41:59;13.50;99.90
16810;DHT22;51744;50.872;4.730;2023-03-25T14:44:49;13.60;99.90
16810;DHT22;51744;50.872;4.730;2023-03-25T14:47:49;13.60;99.90
16810;DHT22;51744;50.872;4.730;2023-03-25T14:50:38;13.50;99.90
16810;DHT22;51744;50.872;4.730;2023-03-25T14:53:27;13.20;99.90
16810;DHT22;51744;50.872;4.730;2023-03-25T14:56:18;13.00;99.90
16810;DHT22;51744;50.872;4.730;2023-03-25T14:59:09;12.80;99.90
16810;DHT22;51744;50.872;4.730;2023-03-25T15:02:14;12.90;99.90
16810;DHT22;51744;50.872;4.730;2023-03-25T15:05:15;12.80;99.90
16810;DHT22;51744;50.872;4.730;2023-03-25T15:08:13;12.50;99.90
16810;DHT22;51744;50.872;4.730;2023-03-25T15:11:03;12.40;99.90
16810;DHT22;51744;50.872;4.730;2023-03-25T15:13:55;12.10;99.90
16810;DHT22;51744;50.872;4.730;2023-03-25T15:16:58;12.00;99.90
16810;DHT22;51744;50.872;4.730;2023-03-25T15:23:31;12.00;99.90
16810;DHT22;51744;50.872;4.730;2023-03-25T15:26:25;12.00;99.90
16810;DHT22;51744;50.872;4.730;2023-03-25T15:29:42;12.00;99.90
16810;DHT22;51744;50.872;4.730;2023-03-25T15:32:39;12.00;99.90
16810;DHT22;51744;50.872;4.730;2023-03-25T15:35:36;11.80;99.90
16810;DHT22;51744;50.872;4.730;2023-03-25T15:38:37;11.80;99.90
16810;DHT22;51744;50.872;4.730;2023-03-25T15:41:50;11.70;99.90
16810;DHT22;51744;50.872;4.730;2023-03-25T15:48:24;11.80;99.90
16810;DHT22;51744;50.872;4.730;2023-03-25T15:51:23;11.80;99.90
16810;DHT22;51744;50.872;4.730;2023-03-25T15:54:31;11.80;99.90
16810;DHT22;51744;50.872;4.730;2023-03-25T15:57:22;11.90;99.90
16810;DHT22;51744;50.872;4.730;2023-03-25T16:00:15;11.80;99.90
16810;DHT22;51744;50.872;4.730;2023-03-25T16:03:12;11.80;99.90
16810;DHT22;51744;50.872;4.730;2023-03-25T16:06:04;11.90;99.90
16810;DHT22;51744;50.872;4.730;2023-03-25T16:08:54;11.90;99.90
16810;DHT22;51744;50.872;4.730;2023-03-25T16:11:45;12.10;99.90
16810;DHT22;51744;50.872;4.730;2023-03-25T16:14:32;12.10;99.90
16810;DHT22;51744;50.872;4.730;2023-03-25T16:17:28;12.20;99.90
16810;DHT22;51744;50.872;4.730;2023-03-25T16:20:21;12.20;99.90
16810;DHT22;51744;50.872;4.730;2023-03-25T16:23:16;12.30;99.90
16810;DHT22;51744;50.872;4.730;2023-03-25T16:26:05;12.30;99.90
16810;DHT22;51744;50.872;4.730;2023-03-25T16:28:53;12.40;99.90
16810;DHT22;51744;50.872;4.730;2023-03-25T16:31:48;12.40;99.90
16810;DHT22;51744;50.872;4.730;2023-03-25T16:34:39;12.40;99.90
16810;DHT22;51744;50.872;4.730;2023-03-25T16:37:27;12.50;99.90
16810;DHT22;51744;50.872;4.730;2023-03-25T16:40:27;12.40;99.90
16810;DHT22;51744;50.872;4.730;2023-03-25T16:43:18;12.30;99.90
16810;DHT22;51744;50.872;4.730;2023-03-25T16:46:09;12.30;99.90
16810;DHT22;51744;50.872;4.730;2023-03-25T16:48:59;12.30;99.90
16810;DHT22;51744;50.872;4.730;2023-03-25T16:51:49;12.30;99.90
16810;DHT22;51744;50.872;4.730;2023-03-25T16:54:43;12.30;99.90
16810;DHT22;51744;50.872;4.730;2023-03-25T16:57:33;12.30;99.90
16810;DHT22;51744;50.872;4.730;2023-03-25T17:00:22;12.20;99.90
16810;DHT22;51744;50.872;4.730;2023-03-25T17:03:16;12.30;99.90
16810;DHT22;51744;50.872;4.730;2023-03-25T17:06:11;12.20;99.90
16810;DHT22;51744;50.872;4.730;2023-03-25T17:08:59;12.20;99.90
16810;DHT22;51744;50.872;4.730;2023-03-25T17:11:51;12.20;99.90
16810;DHT22;51744;50.872;4.730;2023-03-25T17:14:42;12.20;99.90
16810;DHT22;51744;50.872;4.730;2023-03-25T17:17:35;12.10;99.90
16810;DHT22;51744;50.872;4.730;2023-03-25T17:20:29;12.10;99.90
16810;DHT22;51744;50.872;4.730;2023-03-25T17:23:24;12.10;99.90
16810;DHT22;51744;50.872;4.730;2023-03-25T17:26:16;12.00;99.90
16810;DHT22;51744;50.872;4.730;2023-03-25T17:29:06;12.00;99.90
16810;DHT22;51744;50.872;4.730;2023-03-25T17:31:56;12.00;99.90
16810;DHT22;51744;50.872;4.730;2023-03-25T17:34:54;12.00;99.90
16810;DHT22;51744;50.872;4.730;2023-03-25T17:37:46;12.00;99.90
16810;DHT22;51744;50.872;4.730;2023-03-25T17:40:34;11.90;99.90
16810;DHT22;51744;50.872;4.730;2023-03-25T17:43:24;11.90;99.90
16810;DHT22;51744;50.872;4.730;2023-03-25T17:46:14;11.90;99.90
16810;DHT22;51744;50.872;4.730;2023-03-25T17:49:12;11.90;99.90
16810;DHT22;51744;50.872;4.730;2023-03-25T17:52:00;11.90;99.90
16810;DHT22;51744;50.872;4.730;2023-03-25T17:54:50;11.80;99.90
16810;DHT22;51744;50.872;4.730;2023-03-25T17:57:38;11.80;99.90
16810;DHT22;51744;50.872;4.730;2023-03-25T18:00:26;11.80;99.90
16810;DHT22;51744;50.872;4.730;2023-03-25T18:03:17;11.70;99.90
16810;DHT22;51744;50.872;4.730;2023-03-25T18:06:05;11.70;99.90
16810;DHT22;51744;50.872;4.730;2023-03-25T18:08:52;11.70;99.90
16810;DHT22;51744;50.872;4.730;2023-03-25T18:11:41;11.70;99.90
16810;DHT22;51744;50.872;4.730;2023-03-25T18:14:30;11.70;99.90
16810;DHT22;51744;50.872;4.730;2023-03-25T18:17:17;11.70;99.90
16810;DHT22;51744;50.872;4.730;2023-03-25T18:20:13;11.70;99.90
16810;DHT22;51744;50.872;4.730;2023-03-25T18:23:01;11.70;99.90
16810;DHT22;51744;50.872;4.730;2023-03-25T18:25:49;11.70;99.90
16810;DHT22;51744;50.872;4.730;2023-03-25T18:28:38;11.70;99.90
16810;DHT22;51744;50.872;4.730;2023-03-25T18:31:27;11.70;99.90
16810;DHT22;51744;50.872;4.730;2023-03-25T18:34:15;11.70;99.90
16810;DHT22;51744;50.872;4.730;2023-03-25T18:37:02;11.60;99.90
16810;DHT22;51744;50.872;4.730;2023-03-25T18:39:50;11.60;99.90
16810;DHT22;51744;50.872;4.730;2023-03-25T18:42:37;11.50;99.90